createdAt,value
2023-05-19T00:01:24.909Z,72.08
2023-05-19T00:03:28.242Z,72.07
2023-05-19T00:05:31.514Z,71.92
2023-05-19T00:07:37.511Z,72.20
2023-05-19T00:09:40.803Z,72.64
2023-05-19T00:11:43.912Z,72.31
2023-05-19T00:13:49.658Z,73.94
2023-05-19T00:15:54.961Z,74.53
2023-05-19T00:17:58.156Z,74.54
2023-05-19T00:20:01.451Z,74.96
2023-05-19T00:22:04.333Z,75.49
2023-05-19T00:24:08.024Z,75.12
2023-05-19T00:26:10.778Z,75.01
2023-05-19T00:28:13.538Z,74.77
2023-05-19T00:30:16.840Z,74.08
2023-05-19T00:32:20.914Z,73.93
2023-05-19T00:34:23.665Z,74.01
2023-05-19T00:36:26.786Z,74.41
2023-05-19T00:38:29.474Z,74.57
2023-05-19T00:40:33.426Z,74.72
2023-05-19T00:42:36.516Z,75.38
2023-05-19T00:44:41.927Z,75.31
2023-05-19T00:46:44.778Z,75.14
2023-05-19T00:48:48.851Z,74.98
2023-05-19T00:50:52.436Z,74.74
2023-05-19T00:52:55.686Z,74.75
2023-05-19T00:54:58.556Z,75.69
2023-05-19T00:57:01.838Z,75.21
2023-05-19T00:59:04.556Z,76.36
2023-05-19T01:01:07.820Z,76.39
2023-05-19T01:03:12.191Z,75.98
2023-05-19T01:05:17.066Z,76.88
2023-05-19T01:07:21.128Z,76.97
2023-05-19T01:09:24.362Z,77.27
2023-05-19T01:11:27.034Z,77.17
2023-05-19T01:13:30.359Z,77.15
2023-05-19T01:15:37.308Z,77.74
2023-05-19T01:17:46.863Z,78.14
2023-05-19T01:20:02.172Z,79.00
2023-05-19T01:22:22.866Z,79.59
2023-05-19T01:24:44.970Z,79.64
2023-05-19T01:27:10.413Z,79.53
2023-05-19T01:29:30.300Z,79.99
2023-05-19T01:31:35.300Z,80.43
2023-05-19T01:33:39.583Z,80.50
2023-05-19T01:35:44.677Z,80.42
2023-05-19T01:37:48.594Z,80.41
2023-05-19T01:39:51.521Z,80.51
2023-05-19T01:41:55.870Z,81.67
2023-05-19T01:43:59.433Z,81.51
2023-05-19T01:46:03.373Z,81.01
2023-05-19T01:48:11.111Z,81.82
2023-05-19T01:50:14.290Z,81.81
2023-05-19T01:52:17.004Z,81.42
2023-05-19T01:54:19.783Z,81.10
2023-05-19T01:56:34.999Z,81.08
2023-05-19T01:58:44.960Z,81.97
2023-05-19T02:00:53.906Z,81.77
2023-05-19T02:03:07.662Z,81.46
2023-05-19T02:05:29.339Z,82.02
2023-05-19T02:07:43.458Z,82.54
2023-05-19T02:09:59.300Z,82.73
2023-05-19T02:12:07.213Z,82.39
2023-05-19T02:14:17.078Z,83.09
2023-05-19T02:16:22.696Z,83.27
2023-05-19T02:18:25.406Z,83.46
2023-05-19T02:20:29.498Z,83.43
2023-05-19T02:22:32.318Z,83.75
2023-05-19T02:24:35.109Z,83.28
2023-05-19T02:26:38.261Z,83.42
2023-05-19T02:28:40.900Z,84.54
2023-05-19T02:30:43.595Z,84.13
2023-05-19T02:32:47.054Z,83.21
2023-05-19T02:34:50.019Z,84.13
2023-05-19T02:36:54.172Z,85.12
2023-05-19T02:38:57.035Z,85.03
2023-05-19T02:40:59.754Z,84.75
2023-05-19T02:43:03.466Z,84.37
2023-05-19T02:45:07.235Z,85.48
2023-05-19T02:47:09.984Z,85.62
2023-05-19T02:49:12.656Z,85.65
2023-05-19T02:51:15.473Z,86.04
2023-05-19T02:53:19.673Z,85.32
2023-05-19T02:55:22.395Z,85.01
2023-05-19T02:57:25.301Z,84.54
2023-05-19T02:59:28.075Z,84.58
2023-05-19T03:01:32.626Z,84.58
2023-05-19T03:03:35.599Z,85.42
2023-05-19T03:05:38.288Z,85.97
2023-05-19T03:07:41.502Z,85.83
2023-05-19T03:09:45.578Z,86.64
2023-05-19T03:11:48.272Z,87.36
2023-05-19T03:13:51.122Z,88.55
2023-05-19T03:15:53.879Z,88.09
2023-05-19T03:17:56.826Z,87.84
2023-05-19T03:19:59.560Z,88.03
2023-05-19T03:22:02.385Z,88.67
2023-05-19T03:24:05.434Z,89.55
2023-05-19T03:26:09.424Z,89.90
2023-05-19T03:28:12.087Z,89.94
2023-05-19T03:30:15.582Z,90.26
2023-05-19T03:32:18.293Z,89.24
2023-05-19T03:34:22.485Z,90.52
2023-05-19T03:36:26.161Z,90.24
2023-05-19T03:38:28.833Z,91.45
2023-05-19T03:40:31.847Z,90.31
2023-05-19T03:42:36.115Z,91.57
2023-05-19T03:44:38.790Z,91.49
2023-05-19T03:46:41.533Z,91.32
2023-05-19T03:48:44.304Z,91.48
2023-05-19T03:50:48.566Z,91.55
2023-05-19T03:52:51.391Z,91.04
2023-05-19T03:54:54.189Z,91.72
2023-05-19T03:56:56.930Z,92.12
2023-05-19T03:59:00.996Z,92.24
2023-05-19T04:01:03.713Z,92.24
2023-05-19T04:03:06.592Z,92.00
2023-05-19T04:05:09.760Z,92.87
2023-05-19T04:07:12.791Z,92.44
2023-05-19T04:09:17.169Z,92.55
2023-05-19T04:11:21.498Z,93.09
2023-05-19T04:13:24.325Z,92.91
2023-05-19T04:15:28.535Z,93.29
2023-05-19T04:17:31.425Z,92.97
2023-05-19T04:19:34.060Z,93.13
2023-05-19T04:21:36.937Z,92.98
2023-05-19T04:23:39.673Z,93.35
2023-05-19T04:25:42.576Z,92.88
2023-05-19T04:27:45.262Z,93.59
2023-05-19T04:29:48.344Z,92.47
2023-05-19T04:31:52.742Z,92.87
2023-05-19T04:33:55.428Z,92.87
2023-05-19T04:35:58.386Z,93.04
2023-05-19T04:38:01.566Z,93.95
2023-05-19T04:40:05.917Z,93.97
2023-05-19T04:42:20.909Z,93.93
2023-05-19T04:44:26.240Z,95.12
2023-05-19T04:46:30.227Z,93.64
2023-05-19T04:48:34.461Z,94.06
2023-05-19T04:50:38.608Z,93.72
2023-05-19T04:52:41.730Z,92.91
2023-05-19T04:54:44.435Z,94.43
2023-05-19T04:56:47.139Z,94.78
2023-05-19T04:58:49.795Z,92.95
2023-05-19T05:00:52.478Z,93.78
2023-05-19T05:02:57.661Z,93.17
2023-05-19T05:05:02.729Z,93.24
2023-05-19T05:07:06.061Z,92.45
2023-05-19T05:09:08.879Z,91.37
2023-05-19T05:11:12.434Z,90.98
2023-05-19T05:13:15.690Z,91.07
2023-05-19T05:15:19.279Z,92.06
2023-05-19T05:17:22.735Z,92.42
2023-05-19T05:19:26.042Z,92.11
2023-05-19T05:21:31.720Z,92.59
2023-05-19T05:23:35.181Z,92.54
2023-05-19T05:25:38.310Z,92.52
2023-05-19T05:27:41.011Z,92.98
2023-05-19T05:29:43.669Z,91.75
2023-05-19T05:31:46.382Z,91.06
2023-05-19T05:33:49.182Z,90.35
2023-05-19T05:35:51.873Z,89.87
2023-05-19T05:37:56.021Z,89.12
2023-05-19T05:39:58.659Z,89.23
2023-05-19T05:42:01.342Z,89.58
2023-05-19T05:44:04.312Z,90.14
2023-05-19T05:46:07.401Z,87.12
2023-05-19T05:48:11.562Z,87.06
2023-05-19T05:50:15.510Z,84.73
2023-05-19T05:52:20.830Z,83.57
2023-05-19T05:54:25.928Z,83.48
2023-05-19T05:56:29.038Z,82.84
2023-05-19T05:58:33.055Z,80.95
2023-05-19T06:00:36.965Z,80.15
2023-05-19T06:02:39.861Z,80.81
2023-05-19T06:04:42.695Z,82.56
2023-05-19T06:06:45.493Z,80.70
2023-05-19T06:08:48.239Z,80.34
2023-05-19T06:10:52.379Z,80.17
2023-05-19T06:12:55.172Z,77.51
2023-05-19T06:14:57.865Z,77.86
2023-05-19T06:17:00.687Z,77.63
2023-05-19T06:19:03.367Z,78.82
2023-05-19T06:21:06.090Z,78.01
2023-05-19T06:23:09.659Z,77.82
2023-05-19T06:25:12.507Z,77.66
2023-05-19T06:27:16.567Z,76.60
2023-05-19T06:29:19.229Z,76.59
2023-05-19T06:31:22.237Z,77.31
2023-05-19T06:33:28.121Z,75.67
2023-05-19T06:35:31.826Z,75.81
2023-05-19T06:37:34.464Z,75.73
2023-05-19T06:39:38.402Z,77.44
2023-05-19T06:41:41.146Z,77.89
2023-05-19T06:43:45.344Z,77.38
2023-05-19T06:45:48.067Z,76.85
2023-05-19T06:47:50.899Z,73.35
2023-05-19T06:49:55.646Z,72.58
2023-05-19T06:51:58.498Z,75.11
2023-05-19T06:54:01.260Z,75.56
2023-05-19T06:56:03.935Z,77.73
2023-05-19T06:58:06.605Z,76.62
2023-05-19T07:00:13.951Z,74.71
2023-05-19T07:02:18.886Z,77.66
2023-05-19T07:04:21.680Z,76.66
2023-05-19T07:06:24.446Z,77.60
2023-05-19T07:08:27.787Z,76.40
2023-05-19T07:10:30.709Z,78.07
2023-05-19T07:12:33.756Z,78.39
2023-05-19T07:14:37.407Z,78.18
2023-05-19T07:16:41.961Z,78.77
2023-05-19T07:18:44.701Z,79.47
2023-05-19T07:20:47.480Z,80.40
2023-05-19T07:22:50.241Z,80.67
2023-05-19T07:24:52.909Z,80.29
2023-05-19T07:26:55.633Z,80.23
2023-05-19T07:28:58.403Z,80.46
2023-05-19T07:31:01.456Z,78.72
2023-05-19T07:33:05.650Z,77.75
2023-05-19T07:35:09.010Z,77.02
2023-05-19T07:37:11.793Z,77.37
2023-05-19T07:39:15.000Z,77.47
2023-05-19T07:41:17.800Z,76.79
2023-05-19T07:43:20.535Z,75.92
2023-05-19T07:45:23.448Z,76.90
2023-05-19T07:47:26.350Z,76.68
2023-05-19T07:49:30.456Z,75.90
2023-05-19T07:51:33.175Z,77.62
2023-05-19T07:53:35.858Z,77.10
2023-05-19T07:55:38.581Z,78.33
2023-05-19T07:57:41.505Z,78.71
2023-05-19T07:59:44.306Z,78.60
2023-05-19T08:01:47.304Z,79.08
2023-05-19T08:03:50.166Z,78.89
2023-05-19T08:05:54.396Z,78.23
2023-05-19T08:07:58.814Z,78.02
2023-05-19T08:10:01.869Z,77.17
2023-05-19T08:12:05.870Z,78.50
2023-05-19T08:14:08.520Z,78.18
2023-05-19T08:16:11.501Z,78.46
2023-05-19T08:18:14.365Z,77.77
2023-05-19T08:20:17.202Z,77.01
2023-05-19T08:22:21.232Z,78.94
2023-05-19T08:24:23.891Z,77.85
2023-05-19T08:26:26.682Z,77.69
2023-05-19T08:28:29.598Z,76.86
2023-05-19T08:30:32.439Z,76.88
2023-05-19T08:32:35.269Z,77.28
2023-05-19T08:34:37.971Z,76.25
2023-05-19T08:36:40.821Z,76.55
2023-05-19T08:38:44.878Z,76.49
2023-05-19T08:40:48.309Z,76.02
2023-05-19T08:42:51.393Z,76.07
2023-05-19T08:44:54.266Z,76.31
2023-05-19T08:46:57.061Z,75.93
2023-05-19T08:49:03.055Z,76.79
2023-05-19T08:51:15.527Z,74.53
2023-05-19T08:53:32.482Z,74.25
2023-05-19T08:55:43.161Z,75.04
2023-05-19T08:57:46.542Z,76.08
2023-05-19T08:59:50.023Z,74.65
2023-05-19T09:01:54.826Z,74.75
2023-05-19T09:03:57.942Z,74.06
2023-05-19T09:06:01.877Z,74.00
2023-05-19T09:08:05.606Z,72.81
2023-05-19T09:10:14.126Z,74.56
2023-05-19T09:12:18.347Z,75.43
2023-05-19T09:14:21.016Z,75.60
2023-05-19T09:16:23.753Z,75.48
2023-05-19T09:18:27.253Z,74.42
2023-05-19T09:20:31.634Z,74.13
2023-05-19T09:22:36.542Z,74.71
2023-05-19T09:24:40.450Z,73.89
2023-05-19T09:26:43.799Z,74.89
2023-05-19T09:28:48.403Z,74.16
2023-05-19T09:31:00.027Z,75.13
2023-05-19T09:33:04.564Z,73.76
2023-05-19T09:35:08.638Z,73.85
2023-05-19T09:37:14.116Z,74.02
2023-05-19T09:39:17.242Z,74.71
2023-05-19T09:41:20.695Z,75.01
2023-05-19T09:43:23.711Z,74.82
2023-05-19T09:45:28.351Z,74.72
2023-05-19T09:47:35.409Z,72.87
2023-05-19T09:49:38.638Z,73.24
2023-05-19T09:51:42.843Z,73.43
2023-05-19T09:53:47.900Z,73.28
2023-05-19T09:55:52.236Z,72.26
2023-05-19T09:57:56.607Z,72.03
2023-05-19T10:00:01.232Z,72.73
2023-05-19T10:02:06.334Z,72.61
2023-05-19T10:04:09.634Z,70.99
2023-05-19T10:06:12.525Z,70.53
2023-05-19T10:08:17.755Z,71.48
2023-05-19T10:10:21.037Z,72.28
2023-05-19T10:12:25.283Z,72.52
2023-05-19T10:14:29.370Z,73.94
2023-05-19T10:16:33.685Z,72.21
2023-05-19T10:18:40.194Z,71.35
2023-05-19T10:20:43.453Z,72.51
2023-05-19T10:22:47.844Z,72.47
2023-05-19T10:24:50.600Z,73.37
2023-05-19T10:26:58.832Z,74.42
2023-05-19T10:29:03.359Z,74.15
2023-05-19T10:31:10.980Z,73.96
2023-05-19T10:33:17.153Z,73.10
2023-05-19T10:35:41.810Z,72.63
2023-05-19T10:37:47.550Z,71.38
2023-05-19T10:39:52.524Z,70.97
2023-05-19T10:42:04.516Z,72.64
2023-05-19T10:44:11.968Z,71.30
2023-05-19T10:46:14.765Z,71.60
2023-05-19T10:48:18.345Z,72.11
2023-05-19T10:50:21.633Z,73.61
2023-05-19T10:52:26.750Z,73.17
2023-05-19T10:54:43.345Z,72.50
2023-05-19T10:56:47.507Z,71.64
2023-05-19T10:58:52.112Z,72.39
2023-05-19T11:01:01.480Z,72.22
2023-05-19T11:03:14.860Z,71.21
2023-05-19T11:05:19.478Z,70.54
2023-05-19T11:07:24.542Z,72.31
2023-05-19T11:09:39.709Z,72.77
2023-05-19T11:11:48.235Z,71.66
2023-05-19T11:13:53.133Z,70.64
2023-05-19T11:15:57.204Z,70.87
2023-05-19T11:18:02.927Z,70.52
2023-05-19T11:20:10.876Z,69.02
2023-05-19T11:22:14.631Z,69.88
2023-05-19T11:24:39.968Z,70.75
2023-05-19T11:26:44.006Z,70.95
2023-05-19T11:28:48.727Z,71.95
2023-05-19T11:30:51.980Z,71.80
2023-05-19T11:32:55.714Z,72.47
2023-05-19T11:34:58.921Z,74.05
2023-05-19T11:37:02.865Z,71.75
2023-05-19T11:39:06.285Z,71.56
2023-05-19T11:41:10.376Z,69.93
2023-05-19T11:43:13.086Z,70.08
2023-05-19T11:45:16.167Z,70.22
2023-05-19T11:47:18.873Z,70.75
2023-05-19T11:49:21.573Z,68.32
2023-05-19T11:51:24.513Z,69.44
2023-05-19T11:53:33.299Z,69.07
2023-05-19T11:55:43.416Z,69.96
2023-05-19T11:58:03.807Z,70.11
2023-05-19T12:00:10.389Z,70.60
2023-05-19T12:02:18.942Z,70.54
2023-05-19T12:04:21.691Z,71.03
2023-05-19T12:06:24.544Z,70.49
2023-05-19T12:08:28.256Z,71.11
2023-05-19T12:10:33.866Z,72.38
2023-05-19T12:12:36.650Z,72.54
2023-05-19T12:14:41.410Z,73.48
2023-05-19T12:16:44.273Z,74.00
2023-05-19T12:18:47.126Z,74.66
2023-05-19T12:20:50.228Z,73.68
2023-05-19T12:22:53.802Z,74.58
2023-05-19T12:24:57.257Z,74.25
2023-05-19T12:27:07.429Z,74.20
2023-05-19T12:29:10.187Z,73.09
2023-05-19T12:31:14.433Z,72.52
2023-05-19T12:33:17.292Z,72.04
2023-05-19T12:35:20.393Z,71.53
2023-05-19T12:37:23.500Z,70.45
2023-05-19T12:39:26.447Z,70.56
2023-05-19T12:41:30.316Z,70.61
2023-05-19T12:43:33.465Z,70.57
2023-05-19T12:45:37.011Z,70.31
2023-05-19T12:47:41.360Z,70.32
2023-05-19T12:49:57.084Z,70.68
2023-05-19T12:52:05.210Z,70.66
2023-05-19T12:54:10.525Z,71.68
2023-05-19T12:56:14.326Z,71.46
2023-05-19T12:58:17.170Z,70.65
2023-05-19T13:00:21.899Z,71.52
2023-05-19T13:02:25.714Z,71.61
2023-05-19T13:04:29.887Z,72.14
2023-05-19T13:06:33.168Z,71.60
2023-05-19T13:08:36.304Z,71.59
2023-05-19T13:10:40.477Z,72.00
2023-05-19T13:12:43.984Z,72.25
2023-05-19T13:14:46.675Z,71.60
2023-05-19T13:16:49.458Z,70.85
2023-05-19T13:18:52.942Z,71.15
2023-05-19T13:20:57.070Z,70.49
2023-05-19T13:23:00.464Z,68.97
2023-05-19T13:25:03.156Z,69.78
2023-05-19T13:27:06.636Z,69.84
2023-05-19T13:29:09.556Z,68.83
2023-05-19T13:31:12.409Z,69.02
2023-05-19T13:33:15.305Z,69.98
2023-05-19T13:35:18.118Z,70.94
2023-05-19T13:37:22.746Z,69.38
2023-05-19T13:39:25.547Z,68.96
2023-05-19T13:41:29.348Z,69.73
2023-05-19T13:43:32.102Z,69.82
2023-05-19T13:45:34.857Z,69.21
2023-05-19T13:47:37.576Z,69.44
2023-05-19T13:49:41.200Z,69.57
2023-05-19T13:51:44.504Z,69.31
2023-05-19T13:53:48.522Z,68.94
2023-05-19T13:55:52.924Z,68.42
2023-05-19T13:57:55.601Z,68.48
2023-05-19T14:00:03.422Z,68.15
2023-05-19T14:02:07.914Z,68.69
2023-05-19T14:04:11.444Z,68.84
2023-05-19T14:06:14.581Z,69.13
2023-05-19T14:08:17.476Z,68.96
2023-05-19T14:10:21.649Z,68.58
2023-05-19T14:12:33.899Z,66.76
2023-05-19T14:14:42.360Z,68.52
2023-05-19T14:16:45.144Z,67.42
2023-05-19T14:18:47.876Z,67.33
2023-05-19T14:20:50.615Z,67.75
2023-05-19T14:22:53.354Z,69.07
2023-05-19T14:24:56.152Z,67.19
2023-05-19T14:27:00.221Z,68.36
2023-05-19T14:29:03.140Z,68.76
2023-05-19T14:31:07.530Z,67.91
2023-05-19T14:33:10.434Z,68.47
2023-05-19T14:35:13.144Z,67.84
2023-05-19T14:37:15.935Z,68.30
2023-05-19T14:39:18.624Z,68.49
2023-05-19T14:41:21.780Z,67.89
2023-05-19T14:43:25.923Z,67.76
2023-05-19T14:45:28.794Z,68.61
2023-05-19T14:47:31.568Z,68.82
2023-05-19T14:49:34.360Z,69.61
2023-05-19T14:51:37.279Z,69.76
2023-05-19T14:53:39.946Z,69.06
2023-05-19T14:55:42.659Z,68.36
2023-05-19T14:57:45.341Z,68.87
2023-05-19T14:59:49.800Z,69.15
2023-05-19T15:01:52.518Z,70.57
2023-05-19T15:03:55.250Z,69.89
2023-05-19T15:05:58.095Z,70.57
2023-05-19T15:08:00.928Z,70.24
2023-05-19T15:10:04.246Z,69.71
2023-05-19T15:12:07.114Z,71.26
2023-05-19T15:14:09.835Z,71.11
2023-05-19T15:16:17.048Z,70.40
2023-05-19T15:18:20.890Z,71.57
2023-05-19T15:20:23.614Z,70.31
2023-05-19T15:22:26.362Z,70.50
2023-05-19T15:24:29.052Z,70.49
2023-05-19T15:26:31.807Z,69.92
2023-05-19T15:28:34.574Z,71.04
2023-05-19T15:30:37.446Z,71.14
2023-05-19T15:32:41.808Z,71.49
2023-05-19T15:34:44.657Z,72.61
2023-05-19T15:36:47.806Z,71.51
2023-05-19T15:38:50.603Z,72.09
2023-05-19T15:40:53.348Z,70.81
2023-05-19T15:42:56.016Z,70.70
2023-05-19T15:44:58.693Z,70.94
2023-05-19T15:47:01.442Z,70.84
2023-05-19T15:49:05.526Z,70.64
2023-05-19T15:51:08.364Z,70.31
2023-05-19T15:53:11.305Z,71.60
2023-05-19T15:55:14.010Z,72.34
2023-05-19T15:57:16.725Z,72.00
2023-05-19T15:59:19.402Z,71.45
2023-05-19T16:01:22.337Z,71.10
2023-05-19T16:03:25.451Z,72.17
2023-05-19T16:05:29.798Z,72.45
2023-05-19T16:07:32.584Z,71.73
2023-05-19T16:09:35.430Z,73.47
2023-05-19T16:11:38.102Z,72.05
2023-05-19T16:13:40.889Z,70.97
2023-05-19T16:15:43.578Z,71.88
2023-05-19T16:17:46.336Z,71.22
2023-05-19T16:19:49.025Z,71.03
2023-05-19T16:21:53.144Z,71.17
2023-05-19T16:23:55.933Z,70.94
2023-05-19T16:25:58.710Z,70.97
2023-05-19T16:28:02.296Z,71.55
2023-05-19T16:30:05.718Z,71.88
2023-05-19T16:32:08.804Z,72.85
2023-05-19T16:34:11.556Z,73.72
2023-05-19T16:36:14.338Z,71.90
2023-05-19T16:38:18.542Z,70.48
2023-05-19T16:40:21.260Z,70.37
2023-05-19T16:42:24.020Z,71.38
2023-05-19T16:44:26.751Z,71.50
2023-05-19T16:46:31.492Z,72.12
2023-05-19T16:48:34.770Z,73.07
2023-05-19T16:50:37.789Z,71.92
2023-05-19T16:52:40.784Z,72.63
2023-05-19T16:54:45.068Z,72.12
2023-05-19T16:56:47.844Z,72.00
2023-05-19T16:58:50.534Z,72.51
2023-05-19T17:00:53.468Z,72.80
2023-05-19T17:02:56.544Z,73.22
2023-05-19T17:04:59.525Z,73.03
2023-05-19T17:07:02.180Z,72.76
2023-05-19T17:09:04.962Z,73.08
2023-05-19T17:11:09.034Z,72.76
2023-05-19T17:13:11.776Z,74.27
2023-05-19T17:15:15.349Z,74.21
2023-05-19T17:17:18.024Z,75.06
2023-05-19T17:19:20.761Z,74.88
2023-05-19T17:21:23.610Z,75.39
2023-05-19T17:23:26.258Z,76.19
2023-05-19T17:25:29.075Z,75.01
2023-05-19T17:27:33.251Z,75.03
2023-05-19T17:29:36.861Z,75.51
2023-05-19T17:31:39.802Z,75.48
2023-05-19T17:33:42.669Z,74.02
2023-05-19T17:35:45.437Z,75.20
2023-05-19T17:37:48.164Z,75.26
2023-05-19T17:39:50.931Z,75.02
2023-05-19T17:41:53.707Z,74.94
2023-05-19T17:43:57.777Z,75.84
2023-05-19T17:46:01.293Z,75.93
2023-05-19T17:48:04.794Z,78.10
2023-05-19T17:50:08.551Z,78.06
2023-05-19T17:52:11.823Z,77.12
2023-05-19T17:54:15.004Z,77.38
2023-05-19T17:56:19.837Z,77.33
2023-05-19T17:58:23.132Z,78.87
2023-05-19T18:00:27.821Z,80.56
2023-05-19T18:02:31.077Z,78.92
2023-05-19T18:04:34.757Z,81.04
2023-05-19T18:06:39.055Z,79.97
2023-05-19T18:08:43.200Z,83.74
2023-05-19T18:10:48.478Z,82.94
2023-05-19T18:12:51.200Z,80.10
2023-05-19T18:14:53.924Z,82.49
2023-05-19T18:16:58.018Z,85.41
2023-05-19T18:19:00.921Z,86.22
2023-05-19T18:21:03.769Z,85.70
2023-05-19T18:23:06.915Z,83.76
2023-05-19T18:25:10.775Z,87.93
2023-05-19T18:27:13.548Z,84.77
2023-05-19T18:29:16.275Z,86.33
2023-05-19T18:31:19.818Z,86.21
2023-05-19T18:33:25.881Z,86.81
2023-05-19T18:35:29.490Z,88.22
2023-05-19T18:37:32.271Z,89.72
2023-05-19T18:39:34.973Z,90.89
2023-05-19T18:41:41.182Z,90.99
2023-05-19T18:43:43.918Z,91.81
2023-05-19T18:45:47.772Z,92.17
2023-05-19T18:47:50.581Z,89.88
2023-05-19T18:49:54.762Z,91.57
2023-05-19T18:51:57.414Z,90.43
2023-05-19T18:54:00.073Z,91.82
2023-05-19T18:56:03.815Z,90.91
2023-05-19T18:58:07.089Z,89.97
2023-05-19T19:00:10.732Z,92.27
2023-05-19T19:02:13.609Z,94.12
2023-05-19T19:04:16.803Z,90.75
2023-05-19T19:06:22.993Z,93.04
2023-05-19T19:08:26.421Z,93.30
2023-05-19T19:10:29.656Z,93.18
2023-05-19T19:12:32.326Z,92.79
2023-05-19T19:14:35.024Z,91.90
2023-05-19T19:16:37.972Z,92.46
2023-05-19T19:18:40.863Z,93.77
2023-05-19T19:20:43.565Z,94.37
2023-05-19T19:22:47.657Z,94.15
2023-05-19T19:24:50.324Z,93.98
2023-05-19T19:26:53.020Z,95.54
2023-05-19T19:28:55.714Z,95.47
2023-05-19T19:30:58.397Z,94.02
2023-05-19T19:33:01.207Z,94.48
2023-05-19T19:35:04.079Z,95.36
2023-05-19T19:37:06.813Z,97.90
2023-05-19T19:39:10.904Z,97.44
2023-05-19T19:41:13.688Z,98.44
2023-05-19T19:43:16.320Z,98.00
2023-05-19T19:45:19.535Z,97.80
2023-05-19T19:47:22.313Z,96.56
2023-05-19T19:49:25.086Z,97.47
2023-05-19T19:51:28.152Z,98.36
2023-05-19T19:53:30.865Z,96.03
2023-05-19T19:55:34.950Z,96.03
2023-05-19T19:57:37.744Z,95.95
2023-05-19T19:59:40.432Z,96.05
2023-05-19T20:01:43.232Z,96.25
2023-05-19T20:03:46.138Z,96.08
2023-05-19T20:05:48.907Z,96.07
2023-05-19T20:07:51.600Z,96.14
2023-05-19T20:09:55.871Z,96.58
2023-05-19T20:11:59.920Z,96.88
2023-05-19T20:14:02.682Z,96.53
2023-05-19T20:16:05.728Z,95.82
2023-05-19T20:18:08.411Z,95.88
2023-05-19T20:20:12.674Z,96.05
2023-05-19T20:22:15.753Z,96.26
2023-05-19T20:24:18.466Z,96.65
2023-05-19T20:26:22.465Z,96.67
2023-05-19T20:28:26.786Z,95.60
2023-05-19T20:30:29.605Z,93.71
2023-05-19T20:32:32.474Z,93.37
2023-05-19T20:34:35.245Z,91.60
2023-05-19T20:36:38.240Z,90.62
2023-05-19T20:38:41.036Z,88.91
2023-05-19T20:40:43.795Z,86.76
2023-05-19T20:42:46.518Z,86.51
2023-05-19T20:44:51.232Z,87.14
2023-05-19T20:46:54.627Z,85.01
2023-05-19T20:48:57.363Z,85.01
2023-05-19T20:51:00.031Z,84.24
2023-05-19T20:53:02.738Z,84.96
2023-05-19T20:55:05.943Z,84.58
2023-05-19T20:57:09.303Z,84.24
2023-05-19T20:59:12.162Z,84.22
2023-05-19T21:01:16.523Z,84.94
2023-05-19T21:03:20.183Z,84.63
2023-05-19T21:05:24.416Z,84.29
2023-05-19T21:07:27.136Z,84.08
2023-05-19T21:09:29.955Z,83.83
2023-05-19T21:11:32.687Z,83.54
2023-05-19T21:13:38.972Z,83.42
2023-05-19T21:15:41.720Z,83.23
2023-05-19T21:17:46.615Z,84.36
2023-05-19T21:19:50.732Z,84.03
2023-05-19T21:21:53.535Z,85.57
2023-05-19T21:23:56.706Z,85.37
2023-05-19T21:26:00.255Z,85.01
2023-05-19T21:28:03.277Z,85.58
2023-05-19T21:30:07.038Z,84.33
2023-05-19T21:32:09.815Z,84.97
2023-05-19T21:34:13.984Z,87.04
2023-05-19T21:36:16.821Z,86.21
2023-05-19T21:40:25.077Z,85.94
2023-05-19T21:42:27.720Z,86.70
2023-05-19T21:44:31.881Z,86.29
2023-05-19T21:46:34.647Z,85.28
2023-05-19T21:48:37.578Z,85.25
2023-05-19T21:50:41.647Z,85.86
2023-05-19T21:52:44.367Z,85.52
2023-05-19T21:54:47.845Z,87.64
2023-05-19T21:56:50.874Z,88.36
2023-05-19T21:58:53.582Z,87.31
2023-05-19T22:00:56.252Z,88.39
2023-05-19T22:02:59.085Z,87.73
2023-05-19T22:05:01.926Z,88.48
2023-05-19T22:07:06.841Z,87.69
2023-05-19T22:09:09.592Z,88.18
2023-05-19T22:11:14.843Z,89.43
2023-05-19T22:13:17.616Z,89.07
2023-05-19T22:15:20.628Z,89.96
2023-05-19T22:17:23.309Z,90.78
2023-05-19T22:19:26.098Z,90.28
2023-05-19T22:21:28.963Z,91.64
2023-05-19T22:23:33.206Z,90.46
2023-05-19T22:25:35.897Z,91.54
2023-05-19T22:27:38.626Z,91.56
2023-05-19T22:29:41.380Z,92.17
2023-05-19T22:31:44.091Z,92.60
2023-05-19T22:33:46.761Z,92.69
2023-05-19T22:35:49.595Z,92.98
2023-05-19T22:37:52.330Z,92.32
2023-05-19T22:39:56.366Z,92.73
2023-05-19T22:41:59.047Z,93.03
2023-05-19T22:44:02.118Z,93.22
2023-05-19T22:46:05.193Z,93.03
2023-05-19T22:48:08.164Z,93.06
2023-05-19T22:50:12.272Z,93.09
2023-05-19T22:52:15.177Z,93.37
2023-05-19T22:54:17.928Z,92.93
2023-05-19T22:56:22.543Z,93.19
2023-05-19T22:58:25.236Z,92.88
2023-05-19T23:00:27.971Z,92.70
2023-05-19T23:02:30.810Z,93.09
2023-05-19T23:04:34.085Z,93.08
2023-05-19T23:06:37.286Z,93.35
2023-05-19T23:08:40.035Z,93.35
2023-05-19T23:10:42.770Z,93.72
2023-05-19T23:12:46.865Z,93.68
2023-05-19T23:14:48.785Z,93.83
2023-05-19T23:16:51.455Z,94.00
2023-05-19T23:18:54.303Z,93.81
2023-05-19T23:20:57.190Z,94.33
2023-05-19T23:22:59.945Z,95.02
2023-05-19T23:25:07.388Z,95.39
2023-05-19T23:27:10.129Z,94.99
2023-05-19T23:29:14.969Z,94.56
2023-05-19T23:31:17.803Z,95.55
2023-05-19T23:33:20.662Z,95.62
2023-05-19T23:35:23.394Z,95.37
2023-05-19T23:37:26.064Z,96.01
2023-05-19T23:39:28.696Z,96.42
2023-05-19T23:41:31.452Z,96.55
2023-05-19T23:43:34.237Z,96.47
2023-05-19T23:45:38.312Z,96.08
2023-05-19T23:47:41.081Z,96.96
2023-05-19T23:49:43.817Z,97.47
2023-05-19T23:51:46.716Z,97.90
2023-05-19T23:53:49.486Z,98.38
2023-05-19T23:55:52.526Z,98.44
2023-05-19T23:57:55.222Z,98.50
2023-05-19T23:59:57.908Z,98.83
